createdAt,value
2022-10-08T00:01:29.891Z,18.37
2022-10-08T00:03:59.398Z,16.93
2022-10-08T00:06:30.009Z,21.07
2022-10-08T00:08:59.658Z,26.87
2022-10-08T00:11:29.204Z,29.70
2022-10-08T00:13:57.824Z,34.87
2022-10-08T00:16:28.689Z,30.13
2022-10-08T00:19:02.180Z,28.47
2022-10-08T00:21:32.863Z,32.00
2022-10-08T00:24:02.484Z,31.73
2022-10-08T00:26:32.270Z,31.63
2022-10-08T00:29:02.980Z,32.20
2022-10-08T00:31:33.003Z,33.03
2022-10-08T00:34:05.832Z,27.93
2022-10-08T00:36:36.752Z,28.30
2022-10-08T00:39:07.012Z,26.50
2022-10-08T00:41:38.809Z,28.37
2022-10-08T00:44:39.933Z,25.63
2022-10-08T00:47:15.935Z,24.57
2022-10-08T00:49:45.663Z,24.47
2022-10-08T00:52:13.839Z,22.43
2022-10-08T00:54:41.992Z,22.10
2022-10-08T00:57:10.234Z,22.67
2022-10-08T00:59:38.771Z,21.70
2022-10-08T01:02:08.563Z,21.70
2022-10-08T01:04:37.666Z,22.83
2022-10-08T01:07:13.029Z,21.03
2022-10-08T01:09:54.028Z,20.83
2022-10-08T01:12:33.063Z,20.73
2022-10-08T01:15:09.018Z,21.77
2022-10-08T01:17:44.146Z,20.60
2022-10-08T01:20:34.121Z,21.17
2022-10-08T01:23:30.508Z,20.83
2022-10-08T01:26:08.626Z,19.77
2022-10-08T01:28:43.483Z,20.00
2022-10-08T01:31:19.121Z,19.93
2022-10-08T01:33:52.505Z,19.37
2022-10-08T01:36:22.081Z,21.00
2022-10-08T01:38:55.103Z,20.37
2022-10-08T01:41:27.184Z,20.13
2022-10-08T01:44:02.568Z,22.13
2022-10-08T01:46:32.381Z,21.97
2022-10-08T01:49:06.878Z,20.80
2022-10-08T01:51:40.854Z,22.07
2022-10-08T01:54:11.708Z,21.97
2022-10-08T01:56:42.034Z,20.57
2022-10-08T01:59:16.786Z,19.97
2022-10-08T02:01:54.061Z,21.17
2022-10-08T02:04:37.630Z,21.10
2022-10-08T02:07:09.114Z,21.40
2022-10-08T02:09:40.728Z,21.43
2022-10-08T02:12:10.092Z,21.53
2022-10-08T02:14:42.595Z,22.30
2022-10-08T02:17:20.535Z,22.17
2022-10-08T02:19:54.408Z,22.33
2022-10-08T02:22:28.457Z,21.33
2022-10-08T02:25:01.179Z,25.00
2022-10-08T02:27:36.611Z,23.57
2022-10-08T02:30:10.392Z,23.23
2022-10-08T02:32:44.352Z,23.70
2022-10-08T02:35:18.380Z,23.67
2022-10-08T02:37:50.849Z,25.10
2022-10-08T02:40:21.308Z,24.83
2022-10-08T02:42:56.152Z,26.23
2022-10-08T02:45:29.611Z,26.83
2022-10-08T02:48:02.309Z,29.03
2022-10-08T02:50:31.699Z,28.00
2022-10-08T02:53:01.217Z,27.23
2022-10-08T02:55:37.938Z,24.70
2022-10-08T02:58:08.701Z,23.47
2022-10-08T03:00:43.840Z,24.50
2022-10-08T03:03:15.505Z,24.07
2022-10-08T03:05:44.022Z,24.10
2022-10-08T03:08:15.355Z,23.77
2022-10-08T03:10:44.896Z,22.87
2022-10-08T03:13:14.236Z,23.03
2022-10-08T03:15:44.732Z,21.93
2022-10-08T03:18:13.644Z,22.83
2022-10-08T03:20:45.551Z,22.43
2022-10-08T03:23:14.674Z,22.00
2022-10-08T03:25:42.601Z,21.40
2022-10-08T03:28:10.593Z,23.10
2022-10-08T03:30:38.712Z,23.13
2022-10-08T03:33:08.106Z,21.90
2022-10-08T03:35:36.055Z,21.67
2022-10-08T03:38:03.987Z,21.10
2022-10-08T03:40:31.961Z,21.47
2022-10-08T03:42:59.893Z,19.87
2022-10-08T03:45:27.846Z,19.03
2022-10-08T03:47:55.788Z,20.63
2022-10-08T03:50:25.071Z,20.50
2022-10-08T03:52:53.030Z,20.43
2022-10-08T03:55:21.000Z,18.60
2022-10-08T03:57:49.025Z,18.87
2022-10-08T04:00:17.841Z,19.77
2022-10-08T04:02:51.046Z,19.83
2022-10-08T04:05:19.478Z,18.97
2022-10-08T04:07:48.781Z,18.00
2022-10-08T04:10:16.774Z,18.57
2022-10-08T04:12:44.984Z,19.90
2022-10-08T04:15:13.151Z,18.97
2022-10-08T04:17:42.138Z,19.20
2022-10-08T04:20:10.826Z,19.27
2022-10-08T04:22:38.794Z,20.43
2022-10-08T04:25:08.653Z,19.20
2022-10-08T04:27:36.577Z,19.80
2022-10-08T04:30:05.022Z,19.93
2022-10-08T04:32:32.992Z,20.77
2022-10-08T04:35:00.941Z,19.00
2022-10-08T04:37:28.906Z,20.03
2022-10-08T04:39:56.840Z,18.83
2022-10-08T04:42:26.130Z,19.60
2022-10-08T04:44:54.076Z,19.43
2022-10-08T04:47:22.023Z,20.17
2022-10-08T04:49:49.955Z,20.57
2022-10-08T04:52:20.527Z,19.90
2022-10-08T04:54:48.548Z,19.00
2022-10-08T04:57:16.501Z,20.13
2022-10-08T05:00:13.094Z,20.73
2022-10-08T05:02:33.830Z,21.43
2022-10-08T05:05:01.855Z,22.07
2022-10-08T05:07:30.401Z,21.30
2022-10-08T05:09:58.350Z,21.97
2022-10-08T05:12:26.282Z,22.13
2022-10-08T05:14:55.625Z,21.27
2022-10-08T05:17:23.549Z,22.30
2022-10-08T05:19:51.538Z,20.70
2022-10-08T05:22:19.534Z,21.37
2022-10-08T05:24:47.487Z,21.40
2022-10-08T05:27:15.410Z,21.70
2022-10-08T05:29:43.352Z,20.77
2022-10-08T05:32:12.647Z,20.97
2022-10-08T05:34:40.578Z,21.27
2022-10-08T05:37:08.525Z,21.67
2022-10-08T05:39:36.482Z,22.50
2022-10-08T05:42:04.459Z,21.60
2022-10-08T05:44:37.266Z,22.70
2022-10-08T05:47:05.788Z,21.63
2022-10-08T05:49:35.164Z,21.57
2022-10-08T05:52:03.225Z,20.17
2022-10-08T05:54:31.200Z,21.57
2022-10-08T05:56:59.159Z,21.60
2022-10-08T05:59:27.119Z,21.90
2022-10-08T06:01:55.072Z,21.47
2022-10-08T06:04:23.071Z,21.73
2022-10-08T06:06:52.432Z,21.20
2022-10-08T06:09:23.511Z,21.30
2022-10-08T06:11:51.780Z,21.27
2022-10-08T06:14:20.462Z,22.97
2022-10-08T06:16:48.720Z,21.77
2022-10-08T06:19:17.104Z,25.40
2022-10-08T06:21:45.308Z,22.43
2022-10-08T06:24:14.987Z,24.27
2022-10-08T06:26:44.597Z,23.97
2022-10-08T06:29:15.415Z,25.50
2022-10-08T06:31:43.735Z,26.50
2022-10-08T06:34:11.731Z,27.37
2022-10-08T06:36:39.679Z,26.73
2022-10-08T06:39:11.198Z,25.43
2022-10-08T06:41:40.500Z,25.57
2022-10-08T06:44:11.454Z,26.10
2022-10-08T06:46:39.444Z,24.20
2022-10-08T06:49:07.469Z,23.20
2022-10-08T06:51:36.068Z,22.65
2022-10-08T06:54:07.779Z,22.23
2022-10-08T06:56:37.285Z,19.97
2022-10-08T06:59:07.908Z,17.47
2022-10-08T07:01:36.785Z,17.33
2022-10-08T07:04:06.715Z,17.73
2022-10-08T07:06:34.797Z,16.17
2022-10-08T07:09:04.667Z,15.63
2022-10-08T07:11:33.662Z,15.68
2022-10-08T07:14:01.800Z,15.60
2022-10-08T07:16:31.174Z,13.52
2022-10-08T07:18:59.422Z,13.93
2022-10-08T07:21:28.827Z,13.32
2022-10-08T07:23:57.197Z,15.25
2022-10-08T07:26:26.892Z,13.25
2022-10-08T07:28:57.118Z,14.27
2022-10-08T07:31:28.093Z,11.85
2022-10-08T07:33:58.296Z,12.95
2022-10-08T07:36:27.573Z,12.25
2022-10-08T07:38:56.401Z,10.67
2022-10-08T07:41:24.872Z,10.02
2022-10-08T07:43:53.978Z,9.07
2022-10-08T07:46:22.736Z,9.07
2022-10-08T07:48:51.124Z,8.27
2022-10-08T07:51:21.659Z,8.05
2022-10-08T07:53:50.028Z,7.00
2022-10-08T07:56:20.012Z,7.53
2022-10-08T07:58:48.852Z,7.10
2022-10-08T08:01:19.029Z,7.72
2022-10-08T08:03:47.038Z,7.72
2022-10-08T08:06:16.661Z,7.70
2022-10-08T08:08:46.893Z,7.65
2022-10-08T08:11:16.648Z,7.38
2022-10-08T08:13:44.663Z,7.25
2022-10-08T08:16:14.191Z,7.13
2022-10-08T08:18:44.481Z,7.97
2022-10-08T08:21:14.407Z,7.90
2022-10-08T08:23:46.053Z,8.27
2022-10-08T08:26:16.751Z,8.15
2022-10-08T08:28:45.047Z,8.35
2022-10-08T08:31:14.599Z,8.65
2022-10-08T08:33:43.774Z,8.73
2022-10-08T08:36:11.702Z,8.45
2022-10-08T08:38:40.189Z,8.65
2022-10-08T08:41:22.754Z,8.13
2022-10-08T08:43:59.287Z,9.10
2022-10-08T08:46:29.288Z,9.25
2022-10-08T08:49:01.207Z,9.20
2022-10-08T08:51:29.203Z,10.63
2022-10-08T08:53:57.384Z,10.20
2022-10-08T08:56:26.716Z,10.20
2022-10-08T08:59:01.033Z,10.00
2022-10-08T09:01:34.860Z,10.23
2022-10-08T09:04:08.836Z,10.40
2022-10-08T09:06:39.108Z,10.70
2022-10-08T09:09:18.367Z,10.43
2022-10-08T09:11:48.862Z,10.85
2022-10-08T09:14:31.925Z,11.20
2022-10-08T09:17:02.949Z,11.38
2022-10-08T09:19:30.952Z,10.63
2022-10-08T09:21:58.890Z,10.45
2022-10-08T09:24:29.757Z,11.07
2022-10-08T09:26:59.075Z,9.65
2022-10-08T09:29:35.251Z,9.65
2022-10-08T09:32:03.283Z,10.20
2022-10-08T09:34:31.363Z,9.70
2022-10-08T09:37:05.859Z,10.00
2022-10-08T09:39:36.183Z,10.73
2022-10-08T09:42:17.276Z,10.13
2022-10-08T09:44:47.412Z,9.52
2022-10-08T09:47:17.082Z,10.13
2022-10-08T09:49:49.863Z,10.00
2022-10-08T09:52:22.165Z,10.13
2022-10-08T09:54:53.719Z,9.55
2022-10-08T09:57:23.830Z,9.80
2022-10-08T09:59:54.763Z,9.55
2022-10-08T10:02:32.362Z,10.13
2022-10-08T10:05:02.651Z,10.20
2022-10-08T10:07:41.699Z,10.88
2022-10-08T10:10:23.569Z,10.43
2022-10-08T10:12:57.630Z,10.07
2022-10-08T10:15:31.174Z,10.45
2022-10-08T10:18:03.263Z,10.70
2022-10-08T10:20:36.339Z,10.43
2022-10-08T10:23:07.895Z,11.05
2022-10-08T10:25:39.471Z,11.32
2022-10-08T10:28:15.768Z,11.73
2022-10-08T10:30:50.536Z,11.40
2022-10-08T10:33:24.822Z,11.07
2022-10-08T10:35:56.900Z,11.90
2022-10-08T10:38:27.876Z,11.77
2022-10-08T10:41:08.099Z,10.93
2022-10-08T10:43:45.280Z,10.75
2022-10-08T10:46:21.690Z,11.55
2022-10-08T10:48:50.569Z,11.10
2022-10-08T10:51:48.404Z,11.23
2022-10-08T10:54:32.436Z,11.50
2022-10-08T10:57:04.965Z,10.68
2022-10-08T10:59:47.295Z,10.02
2022-10-08T11:02:24.902Z,10.23
2022-10-08T11:05:02.204Z,10.43
2022-10-08T11:08:07.652Z,10.05
2022-10-08T11:10:55.019Z,10.57
2022-10-08T11:13:37.796Z,10.35
2022-10-08T11:16:19.603Z,10.65
2022-10-08T11:18:51.152Z,10.27
2022-10-08T11:21:30.831Z,10.50
2022-10-08T11:24:25.943Z,10.05
2022-10-08T11:27:05.319Z,10.27
2022-10-08T11:29:39.382Z,10.65
2022-10-08T11:32:12.957Z,9.38
2022-10-08T11:34:47.450Z,10.10
2022-10-08T11:37:23.525Z,9.95
2022-10-08T11:40:01.622Z,9.57
2022-10-08T11:42:43.905Z,9.93
2022-10-08T11:45:15.835Z,9.73
2022-10-08T11:47:53.532Z,9.13
2022-10-08T11:50:31.700Z,8.88
2022-10-08T11:53:14.333Z,9.35
2022-10-08T11:55:51.592Z,9.32
2022-10-08T11:58:24.389Z,8.95
2022-10-08T12:00:55.320Z,8.52
2022-10-08T12:03:28.331Z,9.07
2022-10-08T12:05:59.628Z,9.60
2022-10-08T12:08:54.319Z,8.45
2022-10-08T12:11:47.055Z,9.60
2022-10-08T12:14:30.763Z,8.68
2022-10-08T12:17:12.058Z,9.55
2022-10-08T12:20:00.979Z,9.85
2022-10-08T12:23:01.715Z,8.75
2022-10-08T12:25:36.106Z,9.35
2022-10-08T12:28:40.789Z,9.57
2022-10-08T12:31:40.006Z,9.35
2022-10-08T12:34:18.454Z,9.27
2022-10-08T12:37:02.557Z,9.52
2022-10-08T12:39:36.580Z,8.77
2022-10-08T12:42:19.723Z,9.55
2022-10-08T12:44:59.232Z,9.50
2022-10-08T12:47:37.078Z,9.63
2022-10-08T12:50:19.689Z,9.60
2022-10-08T12:52:49.474Z,9.38
2022-10-08T12:55:20.433Z,10.13
2022-10-08T12:57:50.387Z,9.75
2022-10-08T13:00:24.316Z,9.70
2022-10-08T13:03:03.495Z,10.10
2022-10-08T13:05:33.444Z,9.60
2022-10-08T13:08:19.416Z,9.60
2022-10-08T13:10:47.411Z,9.55
2022-10-08T13:13:41.497Z,10.15
2022-10-08T13:16:11.922Z,9.77
2022-10-08T13:18:42.387Z,9.98
2022-10-08T13:21:34.288Z,9.57
2022-10-08T13:24:05.466Z,10.73
2022-10-08T13:26:44.104Z,11.20
2022-10-08T13:29:19.416Z,11.48
2022-10-08T13:31:54.168Z,11.02
2022-10-08T13:34:22.924Z,11.93
2022-10-08T13:36:54.244Z,10.90
2022-10-08T13:39:27.260Z,10.63
2022-10-08T13:41:57.867Z,11.73
2022-10-08T13:44:27.151Z,12.15
2022-10-08T13:46:57.212Z,11.68
2022-10-08T13:49:29.107Z,12.27
2022-10-08T13:51:58.676Z,11.60
2022-10-08T13:54:30.295Z,10.73
2022-10-08T13:56:58.741Z,10.55
2022-10-08T13:59:30.500Z,10.25
2022-10-08T14:01:59.010Z,11.23
2022-10-08T14:04:27.034Z,11.02
2022-10-08T14:06:57.349Z,10.82
2022-10-08T14:09:29.054Z,10.88
2022-10-08T14:11:59.409Z,11.13
2022-10-08T14:14:28.521Z,10.60
2022-10-08T14:16:56.459Z,10.93
2022-10-08T14:19:24.440Z,10.75
2022-10-08T14:21:56.551Z,11.15
2022-10-08T14:24:24.579Z,10.48
2022-10-08T14:26:53.867Z,10.90
2022-10-08T14:29:21.817Z,12.10
2022-10-08T14:31:49.784Z,12.40
2022-10-08T14:34:17.779Z,11.73
2022-10-08T14:36:45.800Z,10.60
2022-10-08T14:39:13.776Z,11.13
2022-10-08T14:41:43.930Z,11.00
2022-10-08T14:44:16.596Z,11.48
2022-10-08T14:46:44.735Z,11.15
2022-10-08T14:49:12.670Z,12.05
2022-10-08T14:51:40.609Z,12.18
2022-10-08T14:54:09.902Z,11.98
2022-10-08T14:56:38.650Z,11.50
2022-10-08T14:59:06.825Z,12.20
2022-10-08T15:01:37.378Z,12.60
2022-10-08T15:04:05.800Z,11.70
2022-10-08T15:06:34.239Z,11.48
2022-10-08T15:09:02.181Z,11.93
2022-10-08T15:11:30.133Z,11.10
2022-10-08T15:13:59.254Z,11.20
2022-10-08T15:16:27.381Z,11.40
2022-10-08T15:18:56.786Z,12.25
2022-10-08T15:21:24.715Z,11.80
2022-10-08T15:23:52.697Z,12.90
2022-10-08T15:26:21.233Z,13.68
2022-10-08T15:28:52.969Z,12.80
2022-10-08T15:31:23.772Z,13.43
2022-10-08T15:33:53.719Z,13.02
2022-10-08T15:36:25.427Z,13.60
2022-10-08T15:38:58.184Z,12.88
2022-10-08T15:41:26.857Z,13.70
2022-10-08T15:43:54.974Z,14.10
2022-10-08T15:46:26.117Z,15.00
2022-10-08T15:48:55.389Z,14.10
2022-10-08T15:51:25.903Z,14.30
2022-10-08T15:53:53.823Z,14.25
2022-10-08T15:56:21.779Z,15.52
2022-10-08T15:58:51.240Z,13.27
2022-10-08T16:01:22.143Z,14.98
2022-10-08T16:03:51.745Z,14.05
2022-10-08T16:06:21.266Z,13.48
2022-10-08T16:08:50.955Z,14.15
2022-10-08T16:11:20.538Z,13.93
2022-10-08T16:13:50.459Z,12.90
2022-10-08T16:16:19.056Z,13.00
2022-10-08T16:18:50.928Z,13.25
2022-10-08T16:21:20.757Z,13.77
2022-10-08T16:23:50.750Z,12.93
2022-10-08T16:26:21.336Z,13.20
2022-10-08T16:28:51.462Z,13.40
2022-10-08T16:31:20.360Z,13.68
2022-10-08T16:33:48.675Z,13.77
2022-10-08T16:36:16.626Z,14.45
2022-10-08T16:38:44.608Z,14.02
2022-10-08T16:41:16.598Z,14.88
2022-10-08T16:43:47.056Z,16.33
2022-10-08T16:46:16.950Z,16.00
2022-10-08T16:48:45.518Z,16.52
2022-10-08T16:51:13.467Z,17.33
2022-10-08T16:53:41.428Z,16.15
2022-10-08T16:56:09.351Z,17.40
2022-10-08T16:58:38.640Z,17.90
2022-10-08T17:01:08.747Z,17.30
2022-10-08T17:03:37.114Z,17.02
2022-10-08T17:06:05.721Z,16.23
2022-10-08T17:08:33.664Z,16.27
2022-10-08T17:11:05.751Z,16.38
2022-10-08T17:13:33.977Z,17.30
2022-10-08T17:16:07.345Z,16.35
2022-10-08T17:18:36.007Z,16.83
2022-10-08T17:21:04.891Z,17.67
2022-10-08T17:23:36.790Z,17.75
2022-10-08T17:26:08.828Z,17.27
2022-10-08T17:28:39.181Z,17.40
2022-10-08T17:31:10.699Z,17.48
2022-10-08T17:33:38.730Z,18.55
2022-10-08T17:36:09.406Z,17.17
2022-10-08T17:38:39.173Z,19.23
2022-10-08T17:41:18.068Z,18.17
2022-10-08T17:43:46.783Z,18.63
2022-10-08T17:46:17.904Z,18.65
2022-10-08T17:48:46.600Z,20.17
2022-10-08T17:51:17.186Z,20.35
2022-10-08T17:53:45.702Z,18.90
2022-10-08T17:56:14.962Z,20.95
2022-10-08T17:58:42.902Z,20.27
2022-10-08T18:01:13.743Z,20.63
2022-10-08T18:03:44.483Z,21.13
2022-10-08T18:06:13.096Z,20.83
2022-10-08T18:08:41.077Z,21.77
2022-10-08T18:11:10.683Z,20.15
2022-10-08T18:13:38.865Z,20.42
2022-10-08T18:16:07.921Z,20.63
2022-10-08T18:18:36.396Z,20.15
2022-10-08T18:21:06.335Z,19.92
2022-10-08T18:23:35.856Z,21.83
2022-10-08T18:26:12.405Z,21.50
2022-10-08T18:28:40.384Z,22.60
2022-10-08T18:31:10.305Z,24.05
2022-10-08T18:33:40.363Z,24.88
2022-10-08T18:36:11.611Z,22.33
2022-10-08T18:38:39.855Z,24.13
2022-10-08T18:41:15.253Z,23.80
2022-10-08T18:43:43.976Z,22.77
2022-10-08T18:46:12.661Z,23.00
2022-10-08T18:48:41.040Z,24.07
2022-10-08T18:51:12.124Z,25.10
2022-10-08T18:53:42.107Z,24.95
2022-10-08T18:56:12.674Z,25.05
2022-10-08T18:58:40.716Z,26.20
2022-10-08T19:01:17.682Z,26.63
2022-10-08T19:03:47.221Z,26.50
2022-10-08T19:06:17.148Z,26.10
2022-10-08T19:08:45.097Z,27.63
2022-10-08T19:11:14.792Z,28.25
2022-10-08T19:13:42.941Z,26.52
2022-10-08T19:16:13.753Z,25.35
2022-10-08T19:18:43.140Z,25.10
2022-10-08T19:21:11.878Z,25.25
2022-10-08T19:23:41.582Z,25.00
2022-10-08T19:26:10.071Z,24.73
2022-10-08T19:28:40.141Z,23.95
2022-10-08T19:31:19.298Z,25.63
2022-10-08T19:33:50.183Z,26.27
2022-10-08T19:36:18.829Z,24.33
2022-10-08T19:38:52.198Z,23.70
2022-10-08T19:41:20.613Z,24.08
2022-10-08T19:43:48.586Z,23.75
2022-10-08T19:46:16.583Z,24.83
2022-10-08T19:48:45.098Z,25.80
2022-10-08T19:51:13.486Z,24.25
2022-10-08T19:53:41.433Z,26.08
2022-10-08T19:56:12.170Z,26.45
2022-10-08T19:58:46.259Z,27.85
2022-10-08T20:01:18.455Z,25.85
2022-10-08T20:03:46.969Z,24.23
2022-10-08T20:06:23.293Z,24.95
2022-10-08T20:08:54.528Z,24.05
2022-10-08T20:11:24.595Z,23.77
2022-10-08T20:13:54.015Z,25.08
2022-10-08T20:16:24.076Z,24.63
2022-10-08T20:18:53.326Z,24.33
2022-10-08T20:21:22.508Z,23.55
2022-10-08T20:23:50.717Z,25.08
2022-10-08T20:26:20.909Z,23.70
2022-10-08T20:28:52.272Z,23.98
2022-10-08T20:31:22.088Z,24.17
2022-10-08T20:33:55.622Z,24.52
2022-10-08T20:36:23.828Z,25.27
2022-10-08T20:38:52.085Z,24.60
2022-10-08T20:41:20.298Z,24.92
2022-10-08T20:43:48.282Z,24.17
2022-10-08T20:46:18.069Z,24.88
2022-10-08T20:48:47.953Z,24.88
2022-10-08T20:51:17.304Z,23.83
2022-10-08T20:53:48.063Z,26.38
2022-10-08T20:56:16.454Z,24.67
2022-10-08T20:58:44.775Z,26.05
2022-10-08T21:01:14.595Z,26.00
2022-10-08T21:03:45.566Z,25.23
2022-10-08T21:06:16.738Z,25.73
2022-10-08T21:08:46.305Z,25.10
2022-10-08T21:11:15.502Z,25.13
2022-10-08T21:13:44.430Z,25.83
2022-10-08T21:16:14.089Z,24.63
2022-10-08T21:18:44.105Z,25.30
2022-10-08T21:21:14.307Z,24.98
2022-10-08T21:23:43.170Z,25.38
2022-10-08T21:26:13.373Z,26.65
2022-10-08T21:28:42.098Z,27.00
2022-10-08T21:31:11.016Z,25.60
2022-10-08T21:33:40.263Z,27.08
2022-10-08T21:36:13.173Z,28.10
2022-10-08T21:38:41.186Z,25.93
2022-10-08T21:41:12.725Z,24.60
2022-10-08T21:43:41.247Z,24.30
2022-10-08T21:46:10.681Z,24.63
2022-10-08T21:48:39.248Z,23.55
2022-10-08T21:51:10.416Z,21.63
2022-10-08T21:53:39.823Z,20.33
2022-10-08T21:56:11.187Z,19.60
2022-10-08T21:58:40.796Z,19.85
2022-10-08T22:01:10.074Z,19.90
2022-10-08T22:03:38.054Z,16.53
2022-10-08T22:06:06.029Z,16.13
2022-10-08T22:08:35.371Z,15.93
2022-10-08T22:11:06.465Z,15.77
2022-10-08T22:13:34.793Z,14.23
2022-10-08T22:16:04.993Z,13.90
2022-10-08T22:18:34.598Z,12.57
2022-10-08T22:21:03.843Z,12.27
2022-10-08T22:23:32.062Z,10.07
2022-10-08T22:26:03.634Z,8.70
2022-10-08T22:28:32.138Z,8.43
2022-10-08T22:31:00.936Z,8.02
2022-10-08T22:33:29.864Z,6.95
2022-10-08T22:36:01.688Z,6.90
2022-10-08T22:38:29.985Z,6.50
2022-10-08T22:41:04.323Z,6.27
2022-10-08T22:43:32.407Z,5.90
2022-10-08T22:46:03.140Z,6.00
2022-10-08T22:48:31.482Z,5.70
2022-10-08T22:51:02.525Z,5.90
2022-10-08T22:53:30.851Z,5.60
2022-10-08T22:55:59.226Z,5.40
2022-10-08T22:58:28.554Z,5.68
2022-10-08T23:01:00.527Z,5.50
2022-10-08T23:03:29.229Z,5.33
2022-10-08T23:06:08.514Z,5.70
2022-10-08T23:08:37.247Z,5.67
2022-10-08T23:11:05.919Z,4.88
2022-10-08T23:13:35.443Z,4.90
2022-10-08T23:16:05.504Z,5.00
2022-10-08T23:18:35.329Z,5.15
2022-10-08T23:21:04.308Z,5.68
2022-10-08T23:23:33.430Z,5.53
2022-10-08T23:26:03.487Z,5.13
2022-10-08T23:28:34.073Z,4.80
2022-10-08T23:31:07.644Z,4.83
2022-10-08T23:33:37.923Z,4.70
2022-10-08T23:36:07.061Z,4.75
2022-10-08T23:38:36.525Z,4.70
2022-10-08T23:41:06.919Z,4.60
2022-10-08T23:43:36.039Z,4.33
2022-10-08T23:46:04.422Z,4.50
2022-10-08T23:48:34.086Z,4.87
2022-10-08T23:51:02.271Z,5.10
2022-10-08T23:53:30.621Z,4.50
2022-10-08T23:55:58.651Z,4.83
2022-10-08T23:58:26.879Z,4.50
